Time;durP1;ratioP1;P1;durP2;ratioP2;P2;SDS_P1;SDS_P2;PMS_P1;PMS_P2;Temp;Humidity;BMP_temperature;BMP_pressure;BME280_temperature;BME280_humidity;BME280_pressure;Samples;Min_cycle;Max_cycle;Signal;HPM_P1;HPM_P2
2024/02/04 00:00:01;;;;;;;;;;;;;;;;;;344296;28;1213;-79
2024/02/04 00:00:13;;;;;;;;;;;;;;;;;;346906;28;1330;-78
2024/02/04 00:00:23;;;;;;;;;;;;;;;;;;344065;28;1247;-79
2024/02/04 00:00:33;;;;;;;;;;;;;;;;;;343047;28;916;-79
2024/02/04 00:00:43;;;;;;;;;;;;;;;;;;344302;28;1185;-79
2024/02/04 00:00:53;;;;;;;;;;;;;;;;;;341712;29;853;-79
2024/02/04 00:01:04;;;;;;;;;;;;;;;;;;341723;29;1015;-78
2024/02/04 00:01:14;;;;;;;;;;;;;;;;;;340254;29;1185;-78
2024/02/04 00:01:24;;;;;;;;;;;;;;;;;;341641;29;975;-78
2024/02/04 00:01:34;;;;;;;;;;;;;;;;;;341677;29;979;-79
2024/02/04 00:01:45;;;;;;;;;;;;;;;;;;341781;29;817;-78
2024/02/04 00:01:55;;;;;;;;;;;;;;;;;;342995;28;1213;-79
2024/02/04 00:02:07;;;;;;;;;;;;;;;;;;343572;28;948;-79
2024/02/04 00:02:17;;;;;;;;;;;;;;;;;;344370;28;955;-79
2024/02/04 00:02:27;;;;;;;;;;;;;;;;;;344386;28;998;-78
2024/02/04 00:02:38;;;;;;;;;;;;;;;;;;343044;28;1022;-79
2024/02/04 00:02:48;;;;;;;;;;;;;;;;;;342684;28;1343;-78
2024/02/04 00:02:58;;;;;;;;;;;;;;;;;;341510;28;1233;-78
2024/02/04 00:03:09;;;;;;;;;;;;;;;;;;340432;29;1015;-78
2024/02/04 00:03:19;;;;;;;;;;;;;;;;;;341656;29;971;-79
2024/02/04 00:03:29;;;;;;;;;;;;;;;;;;344294;28;983;-78
2024/02/04 00:03:40;;;;;;;;;;;;;;;;;;342819;28;1197;-78
2024/02/04 00:03:50;;;;;;;;;;;;;;;;;;345622;28;1446;-79
2024/02/04 00:04:00;;;;;;;;;;;;;;;;;;342895;28;1291;-78
2024/02/04 00:04:10;;;;;;;;;;;;;;;;;;343029;28;835;-79
2024/02/04 00:04:20;;;;;;;;;;;;;;;;;;342805;28;1222;-78
2024/02/04 00:04:32;;;;;;;;;;;;;;;;;;344232;28;1347;-79
2024/02/04 00:04:42;;;;;;;;;;;;;;;;;;341657;29;1299;-79
2024/02/04 00:04:52;;;;;;;;;;;;;;;;;;341597;29;1174;-79
2024/02/04 00:05:03;;;;;;;;;;;;;;;;;;343742;28;1410;-79
2024/02/04 00:05:13;;;;;;;;;;;;;;;;;;342877;28;1965;-79
2024/02/04 00:05:23;;;;;;;;;;;;;;;;;;344416;28;1240;-79
2024/02/04 00:05:33;;;;;;;;;;;;;;;;;;344299;28;1152;-78
2024/02/04 00:05:44;;;;;;;;;;;;;;;;;;344385;28;851;-79
2024/02/04 00:05:54;;;;;;;;;;;;;;;;;;344379;28;1050;-78
2024/02/04 00:06:04;;;;;;;;;;;;;;;;;;344352;28;1018;-78
2024/02/04 00:06:14;;;;;;;;;;;;;;;;;;344341;28;1019;-79
2024/02/04 00:06:24;;;;;;;;;;;;;;;;;;345744;28;891;-79
2024/02/04 00:06:35;;;;;;;;;;;;;;;;;;345769;28;1019;-79
2024/02/04 00:06:45;;;;;;;;;;;;;;;;;;342927;28;1289;-78
2024/02/04 00:06:55;;;;;;;;;;;;;;;;;;342958;28;930;-79
2024/02/04 00:07:05;;;;;;;;;;;;;;;;;;344334;28;904;-78
2024/02/04 00:07:15;;;;;;;;;;;;;;;;;;345564;28;1444;-78
2024/02/04 00:07:26;;;;;;;;;;;;;;;;;;342952;28;1283;-78
2024/02/04 00:07:36;;;;;;;;;;;;;;;;;;343023;28;1046;-78
2024/02/04 00:07:47;;;;;;;;;;;;;;;;;;343029;28;1007;-78
2024/02/04 00:07:57;;;;;;;;;;;;;;;;;;340293;29;1294;-79
2024/02/04 00:08:07;;;;;;;;;;;;;;;;;;340295;29;1264;-79
2024/02/04 00:08:17;;;;;;;;;;;;;;;;;;340164;29;1335;-79
2024/02/04 00:08:28;;;;;;;;;;;;;;;;;;340343;29;952;-79
2024/02/04 00:08:38;;;;;;;;;;;;;;;;;;341499;29;944;-79
2024/02/04 00:08:48;;;;;;;;;;;;;;;;;;341736;29;1082;-78
2024/02/04 00:08:58;;;;;;;;;;;;;;;;;;344293;28;1204;-79
2024/02/04 00:09:09;;;;;;;;;;;;;;;;;;342980;28;1018;-78
2024/02/04 00:09:19;;;;;;;;;;;;;;;;;;343044;28;952;-79
2024/02/04 00:09:29;;;;;;;;;;;;;;;;;;342990;28;892;-78
2024/02/04 00:09:39;;;;;;;;;;;;;;;;;;343004;28;994;-78
2024/02/04 00:09:49;;;;;;;;;;;;;;;;;;342958;28;1050;-79
2024/02/04 00:10:00;;;;;;;;;;;;;;;;;;342990;28;1032;-79
2024/02/04 00:10:11;;;;;;;;;;;;;;;;;;343909;28;1465;-78
2024/02/04 00:10:21;;;;;;;;;;;;;;;;;;343266;28;982;-78
2024/02/04 00:10:31;;;;;;;;;;;;;;;;;;344374;28;972;-78
2024/02/04 00:10:42;;;;;;;;;;;;;;;;;;344187;28;1320;-78
2024/02/04 00:10:52;;;;;;;;;;;;;;;;;;343929;28;1101;-78
2024/02/04 00:11:04;;;;;;;;;;;;;;;;;;341522;29;1480;-78
2024/02/04 00:11:14;;;;;;;;;;;;;;;;;;341666;29;952;-79
2024/02/04 00:11:25;;;;;;;;;;;;;;;;;;342932;28;1308;-79
2024/02/04 00:11:35;;;;;;;;;;;;;;;;;;344328;28;1030;-78
2024/02/04 00:11:46;;;;;;;;;;;;;;;;;;344461;28;859;-79
2024/02/04 00:11:58;;;;;;;;;;;;;;;;;;345644;28;1288;-79
2024/02/04 00:12:08;;;;;;;;;;;;;;;;;;345716;28;986;-79
2024/02/04 00:12:18;;;;;;;;;;;;;;;;;;345689;28;999;-79
2024/02/04 00:12:29;;;;;;;;;;;;;;;;;;343006;28;1007;-79
2024/02/04 00:12:39;;;;;;;;;;;;;;;;;;344371;28;1003;-78
2024/02/04 00:12:49;;;;;;;;;;;;;;;;;;341611;29;1214;-79
2024/02/04 00:12:59;;;;;;;;;;;;;;;;;;342991;28;967;-78
2024/02/04 00:13:09;;;;;;;;;;;;;;;;;;343077;28;876;-79
2024/02/04 00:13:20;;;;;;;;;;;;;;;;;;343003;28;1058;-79
2024/02/04 00:13:30;;;;;;;;;;;;;;;;;;343746;28;1016;-78
2024/02/04 00:13:40;;;;;;;;;;;;;;;;;;344296;28;1177;-79
2024/02/04 00:13:50;;;;;;;;;;;;;;;;;;344392;28;935;-79
2024/02/04 00:14:01;;;;;;;;;;;;;;;;;;344409;28;840;-78
2024/02/04 00:14:12;;;;;;;;;;;;;;;;;;342827;28;1086;-79
2024/02/04 00:14:22;;;;;;;;;;;;;;;;;;343013;28;1010;-79
2024/02/04 00:14:32;;;;;;;;;;;;;;;;;;343028;28;1066;-79
2024/02/04 00:14:42;;;;;;;;;;;;;;;;;;342999;28;963;-79
2024/02/04 00:14:53;;;;;;;;;;;;;;;;;;342571;28;999;-78
2024/02/04 00:15:06;;;;;;;;;;;;;;;;;;341906;28;1411;-78
2024/02/04 00:15:17;;;;;;;;;;;;;;;;;;343535;28;1336;-78
2024/02/04 00:15:27;;;;;;;;;;;;;;;;;;342943;28;1288;-78
2024/02/04 00:15:37;;;;;;;;;;;;;;;;;;344393;28;943;-79
2024/02/04 00:15:47;;;;;;;;;;;;;;;;;;344313;28;983;-79
2024/02/04 00:15:58;;;;;;;;;;;;;;;;;;344325;28;1015;-79
2024/02/04 00:16:08;;;;;;;;;;;;;;;;;;341638;28;1173;-78
2024/02/04 00:16:19;;;;;;;;;;;;;;;;;;342954;28;1002;-79
2024/02/04 00:16:29;;;;;;;;;;;;;;;;;;343000;28;848;-78
2024/02/04 00:16:39;;;;;;;;;;;;;;;;;;343266;28;1002;-78
2024/02/04 00:16:50;;;;;;;;;;;;;;;;;;344308;28;1041;-78
2024/02/04 00:17:00;;;;;;;;;;;;;;;;;;345693;28;1018;-78
2024/02/04 00:17:10;;;;;;;;;;;;;;;;;;344394;28;803;-79
2024/02/04 00:17:20;;;;;;;;;;;;;;;;;;344366;28;816;-79
2024/02/04 00:17:32;;;;;;;;;;;;;;;;;;344344;28;983;-78
2024/02/04 00:17:43;;;;;;;;;;;;;;;;;;344376;28;1098;-79
2024/02/04 00:17:53;;;;;;;;;;;;;;;;;;340276;29;1190;-78
2024/02/04 00:18:03;;;;;;;;;;;;;;;;;;341651;29;1066;-79
2024/02/04 00:18:13;;;;;;;;;;;;;;;;;;341701;29;1093;-79
2024/02/04 00:18:24;;;;;;;;;;;;;;;;;;342755;28;1243;-78
2024/02/04 00:18:34;;;;;;;;;;;;;;;;;;343038;28;955;-79
2024/02/04 00:18:45;;;;;;;;;;;;;;;;;;341412;29;1199;-78
2024/02/04 00:18:55;;;;;;;;;;;;;;;;;;342531;28;1562;-79
2024/02/04 00:19:06;;;;;;;;;;;;;;;;;;342984;28;1050;-79
2024/02/04 00:19:16;;;;;;;;;;;;;;;;;;344287;28;994;-79
2024/02/04 00:19:26;;;;;;;;;;;;;;;;;;342918;28;1167;-79
2024/02/04 00:19:36;;;;;;;;;;;;;;;;;;343106;28;817;-79
2024/02/04 00:19:47;;;;;;;;;;;;;;;;;;341340;29;1183;-78
2024/02/04 00:19:57;;;;;;;;;;;;;;;;;;341460;29;1393;-78
2024/02/04 00:20:09;;;;;;;;;;;;;;;;;;341660;29;995;-78
2024/02/04 00:20:19;;;;;;;;;;;;;;;;;;343087;28;817;-79
2024/02/04 00:20:32;;;;;;;;;;;;;;;;;;342806;28;1408;-78
2024/02/04 00:20:42;;;;;;;;;;;;;;;;;;344193;28;1138;-78
2024/02/04 00:20:52;;;;;;;;;;;;;;;;;;342957;28;1210;-78
2024/02/04 00:21:03;;;;;;;;;;;;;;;;;;343001;28;975;-79
2024/02/04 00:21:13;;;;;;;;;;;;;;;;;;344259;28;1178;-79
2024/02/04 00:21:23;;;;;;;;;;;;;;;;;;342955;28;1011;-78
2024/02/04 00:21:33;;;;;;;;;;;;;;;;;;344665;28;1367;-78
2024/02/04 00:21:44;;;;;;;;;;;;;;;;;;347099;28;986;-79
2024/02/04 00:21:54;;;;;;;;;;;;;;;;;;345588;28;1422;-78
2024/02/04 00:22:04;;;;;;;;;;;;;;;;;;345623;28;975;-79
2024/02/04 00:22:18;;;;;;;;;;;;;;;;;;345588;28;1320;-79
2024/02/04 00:22:28;;;;;;;;;;;;;;;;;;344242;28;1034;-79
2024/02/04 00:22:39;;;;;;;;;;;;;;;;;;341600;28;1170;-79
2024/02/04 00:22:49;;;;;;;;;;;;;;;;;;342844;28;1205;-78
2024/02/04 00:22:59;;;;;;;;;;;;;;;;;;343021;28;944;-79
2024/02/04 00:23:09;;;;;;;;;;;;;;;;;;343290;28;1050;-79
2024/02/04 00:23:20;;;;;;;;;;;;;;;;;;342982;28;1245;-79
2024/02/04 00:23:30;;;;;;;;;;;;;;;;;;342938;28;1007;-79
2024/02/04 00:23:40;;;;;;;;;;;;;;;;;;344319;28;1236;-79
2024/02/04 00:23:50;;;;;;;;;;;;;;;;;;342941;28;912;-78
2024/02/04 00:24:01;;;;;;;;;;;;;;;;;;342912;28;1007;-78
2024/02/04 00:24:11;;;;;;;;;;;;;;;;;;344355;28;951;-79
2024/02/04 00:24:21;;;;;;;;;;;;;;;;;;344387;28;999;-79
2024/02/04 00:24:31;;;;;;;;;;;;;;;;;;344382;28;797;-79
2024/02/04 00:24:42;;;;;;;;;;;;;;;;;;344370;28;903;-79
2024/02/04 00:24:52;;;;;;;;;;;;;;;;;;342645;28;1173;-79
2024/02/04 00:25:04;;;;;;;;;;;;;;;;;;341584;28;1245;-79
2024/02/04 00:25:19;;;;;;;;;;;;;;;;;;341551;29;1887;-79
2024/02/04 00:25:29;;;;;;;;;;;;;;;;;;341689;29;1070;-79
2024/02/04 00:25:41;;;;;;;;;;;;;;;;;;342842;28;1606;-78
2024/02/04 00:25:51;;;;;;;;;;;;;;;;;;344312;28;1037;-79
2024/02/04 00:26:02;;;;;;;;;;;;;;;;;;344308;28;1011;-78
2024/02/04 00:26:12;;;;;;;;;;;;;;;;;;346982;28;1318;-78
2024/02/04 00:26:23;;;;;;;;;;;;;;;;;;344065;28;955;-78
2024/02/04 00:26:33;;;;;;;;;;;;;;;;;;344252;28;1202;-79
2024/02/04 00:26:43;;;;;;;;;;;;;;;;;;344257;28;979;-79
2024/02/04 00:26:53;;;;;;;;;;;;;;;;;;341684;28;1310;-79
2024/02/04 00:27:03;;;;;;;;;;;;;;;;;;341537;29;979;-78
2024/02/04 00:27:14;;;;;;;;;;;;;;;;;;342855;28;1197;-79
2024/02/04 00:27:24;;;;;;;;;;;;;;;;;;342967;28;1031;-79
2024/02/04 00:27:34;;;;;;;;;;;;;;;;;;342931;28;1322;-79
2024/02/04 00:27:44;;;;;;;;;;;;;;;;;;342933;28;1042;-79
2024/02/04 00:27:55;;;;;;;;;;;;;;;;;;342998;28;994;-79
2024/02/04 00:28:05;;;;;;;;;;;;;;;;;;343817;28;1336;-79
2024/02/04 00:28:15;;;;;;;;;;;;;;;;;;344386;28;896;-78
2024/02/04 00:28:27;;;;;;;;;;;;;;;;;;344332;28;781;-79
2024/02/04 00:28:39;;;;;;;;;;;;;;;;;;345732;28;1057;-79
2024/02/04 00:28:49;;;;;;;;;;;;;;;;;;345633;28;990;-79
2024/02/04 00:28:59;;;;;;;;;;;;;;;;;;345674;28;911;-79
2024/02/04 00:29:10;;;;;;;;;;;;;;;;;;344189;28;1360;-78
2024/02/04 00:29:20;;;;;;;;;;;;;;;;;;342871;28;1332;-79
2024/02/04 00:29:30;;;;;;;;;;;;;;;;;;343045;28;907;-79
2024/02/04 00:29:40;;;;;;;;;;;;;;;;;;343648;28;1007;-79
2024/02/04 00:29:50;;;;;;;;;;;;;;;;;;341253;28;1635;-78
2024/02/04 00:30:00;;;;;;;;;;;;;;;;;;342945;28;1350;-79
2024/02/04 00:30:11;;;;;;;;;;;;;;;;;;342982;28;1003;-79
2024/02/04 00:30:21;;;;;;;;;;;;;;;;;;344341;28;911;-79
2024/02/04 00:30:31;;;;;;;;;;;;;;;;;;344269;28;1178;-79
2024/02/04 00:30:41;;;;;;;;;;;;;;;;;;344123;28;1418;-79
2024/02/04 00:30:55;;;;;;;;;;;;;;;;;;342800;28;956;-79
2024/02/04 00:31:05;;;;;;;;;;;;;;;;;;343003;28;1003;-79
2024/02/04 00:31:15;;;;;;;;;;;;;;;;;;342754;28;1237;-79
2024/02/04 00:31:25;;;;;;;;;;;;;;;;;;342937;28;1007;-79
2024/02/04 00:31:35;;;;;;;;;;;;;;;;;;343024;28;793;-79
2024/02/04 00:31:46;;;;;;;;;;;;;;;;;;344258;28;1034;-78
2024/02/04 00:31:56;;;;;;;;;;;;;;;;;;344267;28;1214;-79
2024/02/04 00:32:06;;;;;;;;;;;;;;;;;;342941;28;1308;-79
2024/02/04 00:32:16;;;;;;;;;;;;;;;;;;344281;28;1038;-78
2024/02/04 00:32:26;;;;;;;;;;;;;;;;;;344247;28;1172;-79
2024/02/04 00:32:37;;;;;;;;;;;;;;;;;;342966;28;1015;-79
2024/02/04 00:32:47;;;;;;;;;;;;;;;;;;343037;28;1015;-79
2024/02/04 00:33:02;;;;;;;;;;;;;;;;;;344039;28;1184;-79
2024/02/04 00:33:12;;;;;;;;;;;;;;;;;;344359;28;1018;-79
2024/02/04 00:33:23;;;;;;;;;;;;;;;;;;344336;28;987;-78
2024/02/04 00:33:33;;;;;;;;;;;;;;;;;;345676;28;947;-79
2024/02/04 00:33:43;;;;;;;;;;;;;;;;;;345590;28;1300;-78
2024/02/04 00:33:53;;;;;;;;;;;;;;;;;;345565;28;1302;-79
2024/02/04 00:34:05;;;;;;;;;;;;;;;;;;345661;28;1058;-79
2024/02/04 00:34:15;;;;;;;;;;;;;;;;;;342932;28;1249;-79
2024/02/04 00:34:25;;;;;;;;;;;;;;;;;;341425;28;1272;-78
2024/02/04 00:34:35;;;;;;;;;;;;;;;;;;343035;28;990;-79
2024/02/04 00:34:46;;;;;;;;;;;;;;;;;;342936;28;1002;-79
2024/02/04 00:34:56;;;;;;;;;;;;;;;;;;343087;28;1057;-79
2024/02/04 00:35:06;;;;;;;;;;;;;;;;;;344500;28;1185;-79
2024/02/04 00:35:16;;;;;;;;;;;;;;;;;;345955;28;896;-79
2024/02/04 00:35:27;;;;;;;;;;;;;;;;;;345947;28;999;-79
2024/02/04 00:35:37;;;;;;;;;;;;;;;;;;344615;28;971;-79
2024/02/04 00:35:47;;;;;;;;;;;;;;;;;;344661;28;1327;-79
2024/02/04 00:35:57;;;;;;;;;;;;;;;;;;344769;28;1612;-78
2024/02/04 00:36:08;;;;;;;;;;;;;;;;;;345028;28;1154;-79
2024/02/04 00:36:19;;;;;;;;;;;;;;;;;;344695;28;907;-79
2024/02/04 00:36:29;;;;;;;;;;;;;;;;;;344610;28;940;-79
2024/02/04 00:36:39;;;;;;;;;;;;;;;;;;341894;28;1203;-79
2024/02/04 00:36:49;;;;;;;;;;;;;;;;;;344363;28;1224;-78
2024/02/04 00:37:00;;;;;;;;;;;;;;;;;;343119;28;1449;-79
2024/02/04 00:37:10;;;;;;;;;;;;;;;;;;343208;28;1062;-79
2024/02/04 00:37:20;;;;;;;;;;;;;;;;;;344594;28;1214;-79
2024/02/04 00:37:30;;;;;;;;;;;;;;;;;;341904;29;991;-79
2024/02/04 00:37:41;;;;;;;;;;;;;;;;;;342023;28;1430;-79
2024/02/04 00:37:51;;;;;;;;;;;;;;;;;;343170;28;951;-78
2024/02/04 00:38:03;;;;;;;;;;;;;;;;;;343210;28;1011;-79
2024/02/04 00:38:13;;;;;;;;;;;;;;;;;;343080;28;1264;-79
2024/02/04 00:38:23;;;;;;;;;;;;;;;;;;343304;28;1019;-79
2024/02/04 00:38:33;;;;;;;;;;;;;;;;;;343189;28;1045;-79
2024/02/04 00:38:44;;;;;;;;;;;;;;;;;;345896;28;1213;-79
2024/02/04 00:38:54;;;;;;;;;;;;;;;;;;345927;28;1049;-78
2024/02/04 00:39:05;;;;;;;;;;;;;;;;;;345961;28;971;-79
2024/02/04 00:39:15;;;;;;;;;;;;;;;;;;345981;28;986;-79
2024/02/04 00:39:25;;;;;;;;;;;;;;;;;;345861;28;836;-79
2024/02/04 00:39:35;;;;;;;;;;;;;;;;;;344568;28;991;-79
2024/02/04 00:39:46;;;;;;;;;;;;;;;;;;345035;28;1018;-79
2024/02/04 00:39:56;;;;;;;;;;;;;;;;;;345902;28;1503;-78
2024/02/04 00:40:06;;;;;;;;;;;;;;;;;;345927;28;967;-79
2024/02/04 00:40:17;;;;;;;;;;;;;;;;;;347319;28;947;-79
2024/02/04 00:40:27;;;;;;;;;;;;;;;;;;345903;28;935;-78
2024/02/04 00:40:37;;;;;;;;;;;;;;;;;;344656;28;1022;-79
2024/02/04 00:40:47;;;;;;;;;;;;;;;;;;343222;28;1094;-78
2024/02/04 00:40:57;;;;;;;;;;;;;;;;;;344079;28;1254;-79
2024/02/04 00:41:07;;;;;;;;;;;;;;;;;;344512;28;1513;-79
2024/02/04 00:41:18;;;;;;;;;;;;;;;;;;341896;28;1526;-79
2024/02/04 00:41:28;;;;;;;;;;;;;;;;;;341940;29;960;-79
2024/02/04 00:41:38;;;;;;;;;;;;;;;;;;340641;29;920;-79
2024/02/04 00:41:48;;;;;;;;;;;;;;;;;;343230;28;1365;-78
2024/02/04 00:41:58;;;;;;;;;;;;;;;;;;343219;28;1011;-79
2024/02/04 00:42:09;;;;;;;;;;;;;;;;;;343196;28;836;-78
2024/02/04 00:42:19;;;;;;;;;;;;;;;;;;343297;28;1070;-79
2024/02/04 00:42:29;;;;;;;;;;;;;;;;;;343291;28;923;-79
2024/02/04 00:42:39;;;;;;;;;;;;;;;;;;343262;28;975;-79
2024/02/04 00:42:49;;;;;;;;;;;;;;;;;;343208;28;841;-79
2024/02/04 00:43:00;;;;;;;;;;;;;;;;;;341845;29;1208;-79
2024/02/04 00:43:10;;;;;;;;;;;;;;;;;;343119;28;1657;-78
2024/02/04 00:43:20;;;;;;;;;;;;;;;;;;343240;28;1095;-79
2024/02/04 00:43:31;;;;;;;;;;;;;;;;;;341877;29;968;-79
2024/02/04 00:43:41;;;;;;;;;;;;;;;;;;341947;28;1588;-79
2024/02/04 00:43:52;;;;;;;;;;;;;;;;;;341828;29;1191;-78
2024/02/04 00:44:02;;;;;;;;;;;;;;;;;;341959;29;1003;-79
2024/02/04 00:44:12;;;;;;;;;;;;;;;;;;341808;29;971;-79
2024/02/04 00:44:23;;;;;;;;;;;;;;;;;;343214;28;928;-79
2024/02/04 00:44:33;;;;;;;;;;;;;;;;;;343071;28;1235;-78
2024/02/04 00:44:43;;;;;;;;;;;;;;;;;;343235;28;983;-79
2024/02/04 00:44:53;;;;;;;;;;;;;;;;;;342974;28;1058;-78
2024/02/04 00:45:03;;;;;;;;;;;;;;;;;;344408;28;1315;-79
2024/02/04 00:45:14;;;;;;;;;;;;;;;;;;344549;28;1969;-79
2024/02/04 00:45:24;;;;;;;;;;;;;;;;;;343241;28;1335;-79
2024/02/04 00:45:34;;;;;;;;;;;;;;;;;;343262;28;1043;-79
2024/02/04 00:45:44;;;;;;;;;;;;;;;;;;343221;28;1063;-78
2024/02/04 00:45:56;;;;;;;;;;;;;;;;;;343164;28;1038;-79
2024/02/04 00:46:07;;;;;;;;;;;;;;;;;;343063;28;1582;-78
2024/02/04 00:46:18;;;;;;;;;;;;;;;;;;343731;28;1007;-78
2024/02/04 00:46:28;;;;;;;;;;;;;;;;;;344546;28;1415;-79
2024/02/04 00:46:38;;;;;;;;;;;;;;;;;;344500;28;975;-79
2024/02/04 00:46:48;;;;;;;;;;;;;;;;;;343171;28;1180;-79
2024/02/04 00:46:58;;;;;;;;;;;;;;;;;;340512;29;971;-79
2024/02/04 00:47:09;;;;;;;;;;;;;;;;;;340607;29;1081;-78
2024/02/04 00:47:19;;;;;;;;;;;;;;;;;;340423;29;1274;-79
2024/02/04 00:47:29;;;;;;;;;;;;;;;;;;340519;29;991;-79
2024/02/04 00:47:39;;;;;;;;;;;;;;;;;;340519;29;902;-78
2024/02/04 00:47:49;;;;;;;;;;;;;;;;;;341907;29;975;-78
2024/02/04 00:48:00;;;;;;;;;;;;;;;;;;343242;28;999;-78
2024/02/04 00:48:10;;;;;;;;;;;;;;;;;;343226;28;1033;-78
2024/02/04 00:48:20;;;;;;;;;;;;;;;;;;345908;28;1245;-79
2024/02/04 00:48:30;;;;;;;;;;;;;;;;;;346005;28;1021;-78
2024/02/04 00:48:40;;;;;;;;;;;;;;;;;;345881;28;1028;-78
2024/02/04 00:48:50;;;;;;;;;;;;;;;;;;345899;28;997;-79
2024/02/04 00:49:01;;;;;;;;;;;;;;;;;;345152;28;1263;-78
2024/02/04 00:49:11;;;;;;;;;;;;;;;;;;344667;28;1112;-78
2024/02/04 00:49:21;;;;;;;;;;;;;;;;;;344565;28;1243;-78
2024/02/04 00:49:31;;;;;;;;;;;;;;;;;;344556;28;819;-79
2024/02/04 00:49:42;;;;;;;;;;;;;;;;;;344742;28;1018;-79
2024/02/04 00:49:52;;;;;;;;;;;;;;;;;;345970;28;966;-78
2024/02/04 00:50:02;;;;;;;;;;;;;;;;;;345941;28;978;-79
2024/02/04 00:50:12;;;;;;;;;;;;;;;;;;344311;28;1284;-78
2024/02/04 00:50:23;;;;;;;;;;;;;;;;;;344617;28;804;-79
2024/02/04 00:50:33;;;;;;;;;;;;;;;;;;344541;28;967;-79
2024/02/04 00:50:43;;;;;;;;;;;;;;;;;;345801;28;1245;-79
2024/02/04 00:50:53;;;;;;;;;;;;;;;;;;345925;28;986;-79
2024/02/04 00:51:03;;;;;;;;;;;;;;;;;;344600;28;1403;-78
2024/02/04 00:51:16;;;;;;;;;;;;;;;;;;344504;28;768;-79
2024/02/04 00:51:27;;;;;;;;;;;;;;;;;;344602;28;1063;-79
2024/02/04 00:51:37;;;;;;;;;;;;;;;;;;343198;28;935;-78
2024/02/04 00:51:47;;;;;;;;;;;;;;;;;;343295;28;1050;-78
2024/02/04 00:51:57;;;;;;;;;;;;;;;;;;343216;28;801;-79
2024/02/04 00:52:07;;;;;;;;;;;;;;;;;;343189;28;950;-78
2024/02/04 00:52:18;;;;;;;;;;;;;;;;;;340383;29;975;-79
2024/02/04 00:52:28;;;;;;;;;;;;;;;;;;341984;29;975;-79
2024/02/04 00:52:38;;;;;;;;;;;;;;;;;;341898;29;1188;-79
2024/02/04 00:52:48;;;;;;;;;;;;;;;;;;341836;29;1084;-79
2024/02/04 00:52:58;;;;;;;;;;;;;;;;;;341625;29;1009;-78
2024/02/04 00:53:09;;;;;;;;;;;;;;;;;;343247;28;1022;-78
2024/02/04 00:53:19;;;;;;;;;;;;;;;;;;343134;28;806;-79
2024/02/04 00:53:33;;;;;;;;;;;;;;;;;;341901;29;962;-79
2024/02/04 00:53:43;;;;;;;;;;;;;;;;;;341609;28;1405;-78
2024/02/04 00:53:54;;;;;;;;;;;;;;;;;;343949;28;1048;-79
2024/02/04 00:54:05;;;;;;;;;;;;;;;;;;344639;28;821;-79
2024/02/04 00:54:15;;;;;;;;;;;;;;;;;;344649;28;1053;-79
2024/02/04 00:54:25;;;;;;;;;;;;;;;;;;344461;28;1190;-79
2024/02/04 00:54:35;;;;;;;;;;;;;;;;;;344618;28;1077;-78
2024/02/04 00:54:45;;;;;;;;;;;;;;;;;;343240;28;1097;-79
2024/02/04 00:54:55;;;;;;;;;;;;;;;;;;341810;29;1348;-79
2024/02/04 00:55:06;;;;;;;;;;;;;;;;;;341951;29;1035;-79
2024/02/04 00:55:16;;;;;;;;;;;;;;;;;;341961;29;832;-78
2024/02/04 00:55:26;;;;;;;;;;;;;;;;;;341831;29;904;-79
2024/02/04 00:55:36;;;;;;;;;;;;;;;;;;340530;29;1217;-78
2024/02/04 00:55:47;;;;;;;;;;;;;;;;;;340572;29;1023;-79
2024/02/04 00:55:57;;;;;;;;;;;;;;;;;;343147;28;1185;-78
2024/02/04 00:56:07;;;;;;;;;;;;;;;;;;343195;28;1026;-78
2024/02/04 00:56:17;;;;;;;;;;;;;;;;;;344556;28;1215;-79
2024/02/04 00:56:27;;;;;;;;;;;;;;;;;;343154;28;1438;-79
2024/02/04 00:56:38;;;;;;;;;;;;;;;;;;344561;28;1278;-78
2024/02/04 00:56:48;;;;;;;;;;;;;;;;;;344471;28;1197;-79
2024/02/04 00:56:59;;;;;;;;;;;;;;;;;;344563;28;1002;-79
2024/02/04 00:57:13;;;;;;;;;;;;;;;;;;343083;28;1038;-79
2024/02/04 00:57:23;;;;;;;;;;;;;;;;;;345833;28;1165;-78
2024/02/04 00:57:33;;;;;;;;;;;;;;;;;;345997;28;962;-79
2024/02/04 00:57:43;;;;;;;;;;;;;;;;;;345920;28;1161;-79
2024/02/04 00:57:55;;;;;;;;;;;;;;;;;;345835;28;958;-79
2024/02/04 00:58:05;;;;;;;;;;;;;;;;;;344491;28;1160;-79
2024/02/04 00:58:15;;;;;;;;;;;;;;;;;;344529;28;1188;-79
2024/02/04 00:58:26;;;;;;;;;;;;;;;;;;344538;28;1038;-79
2024/02/04 00:58:36;;;;;;;;;;;;;;;;;;344674;28;1060;-79
2024/02/04 00:58:46;;;;;;;;;;;;;;;;;;344582;28;931;-79
2024/02/04 00:58:56;;;;;;;;;;;;;;;;;;344120;28;1375;-78
2024/02/04 00:59:06;;;;;;;;;;;;;;;;;;341885;29;940;-78
2024/02/04 00:59:17;;;;;;;;;;;;;;;;;;341594;29;971;-79
2024/02/04 00:59:27;;;;;;;;;;;;;;;;;;343026;28;1670;-78
2024/02/04 00:59:37;;;;;;;;;;;;;;;;;;343172;28;1030;-79
2024/02/04 00:59:47;;;;;;;;;;;;;;;;;;343258;28;1084;-78
2024/02/04 00:59:57;;;;;;;;;;;;;;;;;;344430;28;1378;-79
2024/02/04 01:00:09;;;;;;;;;;;;;;;;;;344654;28;970;-78
2024/02/04 01:00:19;;;;;;;;;;;;;;;;;;345025;28;832;-79
2024/02/04 01:00:29;;;;;;;;;;;;;;;;;;347344;28;1006;-78
2024/02/04 01:00:39;;;;;;;;;;;;;;;;;;347196;28;1224;-79
2024/02/04 01:00:49;;;;;;;;;;;;;;;;;;345918;28;954;-79
2024/02/04 01:01:00;;;;;;;;;;;;;;;;;;345864;28;1070;-78
2024/02/04 01:01:10;;;;;;;;;;;;;;;;;;345956;28;999;-79
2024/02/04 01:01:20;;;;;;;;;;;;;;;;;;345913;28;995;-78
2024/02/04 01:01:30;;;;;;;;;;;;;;;;;;345866;28;1413;-79
2024/02/04 01:01:42;;;;;;;;;;;;;;;;;;345774;28;1244;-79
2024/02/04 01:01:52;;;;;;;;;;;;;;;;;;345860;28;1189;-79
2024/02/04 01:02:03;;;;;;;;;;;;;;;;;;344365;28;1330;-79
2024/02/04 01:02:13;;;;;;;;;;;;;;;;;;344643;28;1034;-78
2024/02/04 01:02:23;;;;;;;;;;;;;;;;;;344530;28;963;-79
2024/02/04 01:02:34;;;;;;;;;;;;;;;;;;343195;28;1209;-79
2024/02/04 01:02:44;;;;;;;;;;;;;;;;;;344555;28;1208;-79
2024/02/04 01:02:54;;;;;;;;;;;;;;;;;;344599;28;844;-79
2024/02/04 01:03:04;;;;;;;;;;;;;;;;;;342966;28;1502;-79
2024/02/04 01:03:14;;;;;;;;;;;;;;;;;;344599;28;959;-79
2024/02/04 01:03:25;;;;;;;;;;;;;;;;;;344606;28;975;-78
2024/02/04 01:03:35;;;;;;;;;;;;;;;;;;347243;28;938;-79
2024/02/04 01:03:45;;;;;;;;;;;;;;;;;;345875;28;892;-79
2024/02/04 01:03:56;;;;;;;;;;;;;;;;;;345954;28;884;-78
2024/02/04 01:04:06;;;;;;;;;;;;;;;;;;343158;28;1199;-78
2024/02/04 01:04:16;;;;;;;;;;;;;;;;;;343170;28;1292;-79
2024/02/04 01:04:26;;;;;;;;;;;;;;;;;;343223;28;975;-78
2024/02/04 01:04:37;;;;;;;;;;;;;;;;;;344413;28;1539;-79
2024/02/04 01:04:48;;;;;;;;;;;;;;;;;;345923;28;1014;-79
2024/02/04 01:04:58;;;;;;;;;;;;;;;;;;345821;28;1395;-79
2024/02/04 01:05:09;;;;;;;;;;;;;;;;;;345825;28;1229;-78
2024/02/04 01:05:19;;;;;;;;;;;;;;;;;;341875;29;1902;-79
2024/02/04 01:05:29;;;;;;;;;;;;;;;;;;342986;28;1338;-79
2024/02/04 01:05:40;;;;;;;;;;;;;;;;;;343191;28;971;-78
2024/02/04 01:05:50;;;;;;;;;;;;;;;;;;341908;29;952;-79
2024/02/04 01:06:01;;;;;;;;;;;;;;;;;;341914;29;1010;-79
2024/02/04 01:06:11;;;;;;;;;;;;;;;;;;340491;29;1326;-78
2024/02/04 01:06:21;;;;;;;;;;;;;;;;;;340551;29;1022;-79
2024/02/04 01:06:31;;;;;;;;;;;;;;;;;;340451;29;836;-79
2024/02/04 01:06:41;;;;;;;;;;;;;;;;;;340562;29;991;-79
2024/02/04 01:06:52;;;;;;;;;;;;;;;;;;341073;29;1234;-78
2024/02/04 01:07:02;;;;;;;;;;;;;;;;;;341844;29;1051;-79
2024/02/04 01:07:12;;;;;;;;;;;;;;;;;;341898;29;1003;-78
2024/02/04 01:07:22;;;;;;;;;;;;;;;;;;343732;28;1045;-79
2024/02/04 01:07:32;;;;;;;;;;;;;;;;;;345901;28;974;-79
2024/02/04 01:07:43;;;;;;;;;;;;;;;;;;344732;28;1352;-78
2024/02/04 01:07:53;;;;;;;;;;;;;;;;;;345931;28;1006;-79
2024/02/04 01:08:03;;;;;;;;;;;;;;;;;;346085;28;990;-78
2024/02/04 01:08:13;;;;;;;;;;;;;;;;;;347309;28;1009;-79
2024/02/04 01:08:24;;;;;;;;;;;;;;;;;;344430;28;1280;-78
2024/02/04 01:08:35;;;;;;;;;;;;;;;;;;343440;28;915;-78
2024/02/04 01:08:45;;;;;;;;;;;;;;;;;;344556;28;1082;-78
2024/02/04 01:08:56;;;;;;;;;;;;;;;;;;344630;28;773;-79
2024/02/04 01:09:06;;;;;;;;;;;;;;;;;;344548;28;986;-78
2024/02/04 01:09:16;;;;;;;;;;;;;;;;;;344161;28;1025;-79
2024/02/04 01:09:27;;;;;;;;;;;;;;;;;;344500;28;998;-79
2024/02/04 01:09:37;;;;;;;;;;;;;;;;;;345129;28;904;-79
2024/02/04 01:09:47;;;;;;;;;;;;;;;;;;345915;28;1061;-77
2024/02/04 01:09:58;;;;;;;;;;;;;;;;;;345884;28;1002;-78
2024/02/04 01:10:08;;;;;;;;;;;;;;;;;;344850;28;962;-77
2024/02/04 01:10:18;;;;;;;;;;;;;;;;;;345565;28;880;-79
2024/02/04 01:10:28;;;;;;;;;;;;;;;;;;346447;28;765;-78
2024/02/04 01:10:39;;;;;;;;;;;;;;;;;;345817;28;1117;-79
2024/02/04 01:10:51;;;;;;;;;;;;;;;;;;343250;28;1321;-78
2024/02/04 01:11:01;;;;;;;;;;;;;;;;;;341907;29;1007;-78
2024/02/04 01:11:11;;;;;;;;;;;;;;;;;;341885;29;991;-79
2024/02/04 01:11:21;;;;;;;;;;;;;;;;;;343214;28;1022;-78
2024/02/04 01:11:32;;;;;;;;;;;;;;;;;;344530;28;1317;-79
2024/02/04 01:11:42;;;;;;;;;;;;;;;;;;345681;28;1010;-78
2024/02/04 01:11:53;;;;;;;;;;;;;;;;;;345871;28;1363;-79
2024/02/04 01:12:03;;;;;;;;;;;;;;;;;;345911;28;902;-79
2024/02/04 01:12:13;;;;;;;;;;;;;;;;;;344560;28;947;-78
2024/02/04 01:12:24;;;;;;;;;;;;;;;;;;344582;28;1050;-79
2024/02/04 01:12:34;;;;;;;;;;;;;;;;;;344610;28;999;-79
2024/02/04 01:12:45;;;;;;;;;;;;;;;;;;344565;28;882;-79
2024/02/04 01:12:55;;;;;;;;;;;;;;;;;;344540;28;975;-79
2024/02/04 01:13:08;;;;;;;;;;;;;;;;;;344526;28;1054;-79
2024/02/04 01:13:18;;;;;;;;;;;;;;;;;;343106;28;1006;-79
2024/02/04 01:13:29;;;;;;;;;;;;;;;;;;344500;28;1050;-79
2024/02/04 01:13:39;;;;;;;;;;;;;;;;;;344482;28;978;-79
2024/02/04 01:13:49;;;;;;;;;;;;;;;;;;343189;28;1002;-79
2024/02/04 01:13:59;;;;;;;;;;;;;;;;;;343172;28;987;-79